sensor_id;sensor_type;location;lat;lon;timestamp;pressure;altitude;pressure_sealevel;temperature;humidity
65054;BME280;51639;47.828;35.038;2023-05-22T00:09:48;100100.66;;;18.05;100.00
65054;BME280;51639;47.828;35.038;2023-05-22T00:24:50;100109.47;;;17.85;100.00
65054;BME280;51639;47.828;35.038;2023-05-22T00:39:52;100105.94;;;17.70;100.00
65054;BME280;51639;47.828;35.038;2023-05-22T00:54:54;100105.94;;;17.70;100.00
65054;BME280;51639;47.828;35.038;2023-05-22T01:09:56;100076.38;;;17.56;100.00
65054;BME280;51639;47.828;35.038;2023-05-22T01:25:00;100066.44;;;17.34;100.00
65054;BME280;51639;47.828;35.038;2023-05-22T01:40:09;100075.91;;;17.33;100.00
65054;BME280;51639;47.828;35.038;2023-05-22T01:55:18;100096.56;;;17.11;100.00
65054;BME280;51639;47.828;35.038;2023-05-22T02:10:23;100112.25;;;17.10;100.00
65054;BME280;51639;47.828;35.038;2023-05-22T02:25:27;100106.19;;;17.06;100.00
65054;BME280;51639;47.828;35.038;2023-05-22T06:33:35;100098.78;;;19.58;100.00
65054;BME280;51639;47.828;35.038;2023-05-22T06:48:38;100102.69;;;19.92;100.00
65054;BME280;51639;47.828;35.038;2023-05-22T07:03:41;100107.66;;;20.08;100.00
65054;BME280;51639;47.828;35.038;2023-05-22T07:18:43;100094.38;;;20.33;100.00
65054;BME280;51639;47.828;35.038;2023-05-22T07:33:46;100092.66;;;20.87;100.00
65054;BME280;51639;47.828;35.038;2023-05-22T07:48:48;100092.22;;;21.20;100.00
65054;BME280;51639;47.828;35.038;2023-05-22T08:03:51;100095.22;;;21.65;100.00
65054;BME280;51639;47.828;35.038;2023-05-22T08:18:53;100092.41;;;22.07;100.00
65054;BME280;51639;47.828;35.038;2023-05-22T08:33:55;100084.00;;;22.61;100.00
65054;BME280;51639;47.828;35.038;2023-05-22T08:49:05;100084.66;;;23.68;100.00
65054;BME280;51639;47.828;35.038;2023-05-22T09:04:08;100074.34;;;24.26;100.00
65054;BME280;51639;47.828;35.038;2023-05-22T09:19:11;100074.16;;;24.54;100.00
65054;BME280;51639;47.828;35.038;2023-05-22T09:34:14;100066.63;;;24.49;100.00
65054;BME280;51639;47.828;35.038;2023-05-22T09:49:16;100054.69;;;24.90;100.00
65054;BME280;51639;47.828;35.038;2023-05-22T10:04:20;100040.53;;;25.85;100.00
65054;BME280;51639;47.828;35.038;2023-05-22T10:19:24;100022.66;;;25.80;90.50
65054;BME280;51639;47.828;35.038;2023-05-22T10:34:39;100006.25;;;25.77;90.28
65054;BME280;51639;47.828;35.038;2023-05-22T10:49:44;100001.25;;;26.45;88.47
65054;BME280;51639;47.828;35.038;2023-05-22T11:04:47;99990.59;;;26.62;78.85
65054;BME280;51639;47.828;35.038;2023-05-22T11:20:03;99985.25;;;26.32;81.05
65054;BME280;51639;47.828;35.038;2023-05-22T11:35:06;99981.19;;;25.64;86.19
65054;BME280;51639;47.828;35.038;2023-05-22T11:50:10;99962.91;;;25.49;91.37
65054;BME280;51639;47.828;35.038;2023-05-22T12:05:13;99960.44;;;25.65;85.78
65054;BME280;51639;47.828;35.038;2023-05-22T12:20:16;99949.91;;;24.96;90.10
65054;BME280;51639;47.828;35.038;2023-05-22T12:35:18;99939.53;;;24.42;89.13
65054;BME280;51639;47.828;35.038;2023-05-22T12:50:21;99943.66;;;23.94;94.88
65054;BME280;51639;47.828;35.038;2023-05-22T13:05:23;99938.13;;;23.94;95.73
65054;BME280;51639;47.828;35.038;2023-05-22T13:20:25;99950.44;;;23.58;100.00
65054;BME280;51639;47.828;35.038;2023-05-22T13:35:27;99938.38;;;22.81;100.00
65054;BME280;51639;47.828;35.038;2023-05-22T13:50:30;99932.59;;;22.56;100.00
65054;BME280;51639;47.828;35.038;2023-05-22T14:05:32;99931.84;;;22.67;100.00
65054;BME280;51639;47.828;35.038;2023-05-22T14:20:34;99920.50;;;22.82;100.00
65054;BME280;51639;47.828;35.038;2023-05-22T14:35:36;99907.84;;;23.03;100.00
65054;BME280;51639;47.828;35.038;2023-05-22T14:50:39;99908.75;;;23.28;100.00
65054;BME280;51639;47.828;35.038;2023-05-22T15:05:41;99903.00;;;23.20;100.00
65054;BME280;51639;47.828;35.038;2023-05-22T15:20:43;99906.50;;;23.26;100.00
65054;BME280;51639;47.828;35.038;2023-05-22T15:35:45;99898.19;;;23.26;100.00
65054;BME280;51639;47.828;35.038;2023-05-22T15:50:48;99908.28;;;23.18;100.00
65054;BME280;51639;47.828;35.038;2023-05-22T16:05:50;99919.88;;;23.17;100.00
65054;BME280;51639;47.828;35.038;2023-05-22T16:20:58;99924.47;;;22.92;100.00
65054;BME280;51639;47.828;35.038;2023-05-22T16:36:08;99924.28;;;22.78;100.00
65054;BME280;51639;47.828;35.038;2023-05-22T16:51:10;99920.75;;;22.84;100.00
65054;BME280;51639;47.828;35.038;2023-05-22T17:06:12;99929.53;;;22.76;100.00
65054;BME280;51639;47.828;35.038;2023-05-22T17:21:15;99923.53;;;22.61;100.00
65054;BME280;51639;47.828;35.038;2023-05-22T17:36:18;99933.84;;;22.44;100.00
65054;BME280;51639;47.828;35.038;2023-05-22T17:51:20;99944.16;;;22.27;100.00
65054;BME280;51639;47.828;35.038;2023-05-22T18:06:22;99955.97;;;22.22;100.00
65054;BME280;51639;47.828;35.038;2023-05-22T18:21:25;99959.50;;;22.11;100.00
65054;BME280;51639;47.828;35.038;2023-05-22T18:36:27;99973.84;;;22.15;100.00
65054;BME280;51639;47.828;35.038;2023-05-22T18:51:29;99963.72;;;21.95;100.00
65054;BME280;51639;47.828;35.038;2023-05-22T19:06:32;99972.69;;;21.62;100.00
65054;BME280;51639;47.828;35.038;2023-05-22T19:21:34;99967.28;;;21.25;100.00
65054;BME280;51639;47.828;35.038;2023-05-22T19:36:36;99955.75;;;21.32;100.00
65054;BME280;51639;47.828;35.038;2023-05-22T19:51:38;99960.59;;;21.54;100.00
65054;BME280;51639;47.828;35.038;2023-05-22T20:06:40;99955.31;;;21.56;100.00
65054;BME280;51639;47.828;35.038;2023-05-22T20:21:42;99964.09;;;21.49;100.00
65054;BME280;51639;47.828;35.038;2023-05-22T20:36:44;99960.59;;;21.06;100.00
65054;BME280;51639;47.828;35.038;2023-05-22T20:51:47;99956.78;;;20.92;100.00
65054;BME280;51639;47.828;35.038;2023-05-22T21:06:50;99955.94;;;20.81;100.00
65054;BME280;51639;47.828;35.038;2023-05-22T21:21:52;99961.94;;;20.73;100.00
65054;BME280;51639;47.828;35.038;2023-05-22T21:36:54;99953.66;;;20.42;100.00
65054;BME280;51639;47.828;35.038;2023-05-22T21:51:56;99949.72;;;20.23;100.00
65054;BME280;51639;47.828;35.038;2023-05-22T22:06:58;99934.38;;;19.90;100.00
65054;BME280;51639;47.828;35.038;2023-05-22T22:22:01;99930.44;;;19.71;100.00
65054;BME280;51639;47.828;35.038;2023-05-22T22:37:04;99915.31;;;19.61;100.00
65054;BME280;51639;47.828;35.038;2023-05-22T22:52:07;99899.22;;;19.54;100.00
65054;BME280;51639;47.828;35.038;2023-05-22T23:07:09;99895.34;;;19.66;100.00
65054;BME280;51639;47.828;35.038;2023-05-22T23:22:11;99898.09;;;19.46;100.00
65054;BME280;51639;47.828;35.038;2023-05-22T23:37:13;99895.22;;;19.14;100.00
65054;BME280;51639;47.828;35.038;2023-05-22T23:52:15;99896.16;;;18.70;100.00
